createdAt,value
2019-03-30T00:00:41.051Z,7.70
2019-03-30T00:03:10.416Z,7.70
2019-03-30T00:08:09.029Z,7.30
2019-03-30T00:10:38.371Z,7.30
2019-03-30T00:20:35.106Z,7.10
2019-03-30T00:28:03.156Z,7.20
2019-03-30T00:38:00.231Z,6.80
2019-03-30T00:40:29.627Z,6.90
2019-03-30T00:47:57.480Z,6.70
2019-03-30T00:57:54.513Z,6.90
2019-03-30T01:00:24.117Z,6.50
2019-03-30T01:02:53.473Z,6.70
2019-03-30T01:05:22.851Z,6.70
2019-03-30T01:07:52.199Z,6.60
2019-03-30T01:12:50.865Z,6.60
2019-03-30T01:25:16.633Z,6.60
2019-03-30T01:27:46.010Z,6.60
2019-03-30T01:32:46.665Z,6.50
2019-03-30T01:40:14.789Z,6.70
2019-03-30T01:45:13.383Z,6.50
2019-03-30T01:57:41.045Z,6.30
2019-03-30T02:02:40.143Z,6.40
2019-03-30T02:05:09.853Z,6.40
2019-03-30T02:07:39.262Z,6.10
2019-03-30T02:17:38.189Z,6.30
2019-03-30T02:20:08.834Z,6.50
2019-03-30T02:22:38.230Z,6.20
2019-03-30T02:25:08.532Z,6.40
2019-03-30T02:27:37.919Z,6.20
2019-03-30T02:35:07.757Z,6.40
2019-03-30T02:40:07.760Z,6.30
2019-03-30T02:55:07.117Z,6.10
2019-03-30T02:57:36.449Z,5.90
2019-03-30T03:02:37.212Z,6.10
2019-03-30T03:05:08.065Z,6.00
2019-03-30T03:07:37.389Z,6.70
2019-03-30T03:12:37.213Z,6.00
2019-03-30T03:15:07.786Z,6.10
2019-03-30T03:17:37.631Z,5.80
2019-03-30T03:25:08.142Z,6.20
2019-03-30T03:27:37.507Z,5.70
2019-03-30T03:30:07.588Z,6.30
2019-03-30T03:35:07.577Z,5.90
2019-03-30T03:40:08.856Z,6.00
2019-03-30T03:45:09.638Z,6.30
2019-03-30T03:52:38.492Z,6.00
2019-03-30T03:55:07.992Z,5.60
2019-03-30T04:00:10.058Z,5.70
2019-03-30T04:05:09.704Z,5.70
2019-03-30T04:10:11.532Z,5.70
2019-03-30T04:12:44.005Z,5.80
2019-03-30T04:25:16.601Z,5.40
2019-03-30T04:32:44.554Z,5.60
2019-03-30T04:37:43.002Z,5.60
2019-03-30T04:40:12.628Z,5.40
2019-03-30T04:45:11.155Z,5.30
2019-03-30T04:50:09.869Z,5.90
2019-03-30T04:52:39.206Z,5.60
2019-03-30T04:57:37.629Z,5.60
2019-03-30T05:00:08.619Z,5.40
2019-03-30T05:02:38.321Z,5.80
2019-03-30T05:05:08.614Z,5.60
2019-03-30T05:07:38.156Z,5.50
2019-03-30T05:10:09.037Z,5.30
2019-03-30T05:25:06.936Z,5.80
2019-03-30T05:27:36.279Z,5.90
2019-03-30T05:30:07.561Z,5.90
2019-03-30T05:35:08.196Z,6.10
2019-03-30T05:40:08.613Z,6.20
2019-03-30T05:57:34.807Z,6.50
2019-03-30T06:00:06.355Z,6.50
2019-03-30T06:05:05.794Z,6.40
2019-03-30T06:07:35.173Z,6.60
2019-03-30T06:10:06.646Z,6.80
2019-03-30T06:15:07.770Z,7.10
2019-03-30T06:17:37.105Z,7.40
2019-03-30T06:30:23.097Z,8.20
2019-03-30T06:40:19.898Z,8.60
2019-03-30T06:45:18.372Z,9.10
2019-03-30T06:47:47.757Z,9.30
2019-03-30T06:50:17.222Z,9.40
2019-03-30T06:52:57.277Z,9.40
2019-03-30T06:55:24.402Z,9.50
2019-03-30T07:05:42.605Z,9.70
2019-03-30T07:08:17.232Z,9.90
2019-03-30T07:10:48.305Z,9.90
2019-03-30T07:15:49.175Z,9.50
2019-03-30T07:18:19.434Z,9.40
2019-03-30T07:20:48.803Z,9.70
2019-03-30T07:25:47.367Z,10.30
2019-03-30T07:33:14.917Z,9.80
2019-03-30T07:38:13.470Z,9.70
2019-03-30T07:40:42.808Z,9.80
2019-03-30T07:45:41.737Z,10.30
2019-03-30T07:48:11.199Z,10.00
2019-03-30T07:58:07.922Z,10.20
2019-03-30T08:05:38.187Z,10.30
2019-03-30T08:08:07.692Z,10.30
2019-03-30T08:10:38.205Z,10.50
2019-03-30T08:18:07.653Z,10.80
2019-03-30T08:23:11.434Z,10.90
2019-03-30T08:28:10.319Z,10.90
2019-03-30T08:35:38.006Z,11.70
2019-03-30T08:40:36.507Z,11.50
2019-03-30T08:45:34.993Z,11.80
2019-03-30T08:55:32.162Z,12.00
2019-03-30T09:00:39.424Z,12.20
2019-03-30T09:03:08.873Z,12.20
2019-03-30T09:05:38.323Z,12.30
2019-03-30T09:13:13.058Z,12.60
2019-03-30T09:15:42.441Z,12.60
2019-03-30T09:20:40.965Z,12.70
2019-03-30T09:33:07.741Z,12.90
2019-03-30T09:35:37.200Z,13.30
2019-03-30T09:40:37.654Z,13.10
2019-03-30T09:43:08.674Z,13.10
2019-03-30T09:45:38.142Z,13.00
2019-03-30T09:58:04.238Z,13.10
2019-03-30T10:00:36.788Z,13.20
2019-03-30T10:03:07.458Z,13.30
2019-03-30T10:10:35.651Z,13.60
2019-03-30T10:13:05.853Z,14.50
2019-03-30T10:33:02.671Z,14.40
2019-03-30T10:38:02.544Z,14.40
2019-03-30T10:43:01.847Z,14.50
2019-03-30T10:55:33.783Z,14.70
2019-03-30T10:58:03.226Z,15.00
2019-03-30T11:03:07.659Z,15.00
2019-03-30T11:05:37.014Z,14.90
2019-03-30T11:08:07.428Z,15.10
2019-03-30T11:10:39.130Z,14.80
2019-03-30T11:13:09.432Z,15.10
2019-03-30T11:20:41.761Z,15.20
2019-03-30T11:28:21.817Z,14.60
2019-03-30T11:33:20.286Z,15.30
2019-03-30T11:35:49.639Z,15.40
2019-03-30T11:38:18.978Z,15.80
2019-03-30T11:40:48.347Z,15.30
2019-03-30T11:45:46.806Z,15.30
2019-03-30T11:53:15.195Z,15.60
2019-03-30T12:05:41.030Z,15.60
2019-03-30T12:08:10.452Z,15.80
2019-03-30T12:18:10.487Z,15.10
2019-03-30T12:20:39.830Z,15.90
2019-03-30T12:28:07.682Z,16.00
2019-03-30T12:30:37.051Z,15.80
2019-03-30T12:35:35.514Z,15.90
2019-03-30T12:40:34.083Z,15.90
2019-03-30T12:48:01.691Z,16.10
2019-03-30T13:07:56.226Z,16.00
2019-03-30T13:15:23.926Z,16.20
2019-03-30T13:20:22.360Z,16.20
2019-03-30T13:22:51.755Z,16.00
2019-03-30T13:27:53.257Z,16.20
2019-03-30T13:30:21.599Z,15.90
2019-03-30T13:32:53.411Z,16.10
2019-03-30T13:37:51.255Z,16.50
2019-03-30T13:40:20.662Z,16.30
2019-03-30T13:45:19.126Z,16.20
2019-03-30T13:47:48.574Z,16.00
2019-03-30T13:57:45.424Z,16.60
2019-03-30T14:00:15.199Z,16.50
2019-03-30T14:07:43.401Z,16.70
2019-03-30T14:15:11.566Z,16.30
2019-03-30T14:35:08.554Z,16.80
2019-03-30T14:42:38.293Z,16.80
2019-03-30T14:55:09.766Z,16.90
2019-03-30T14:57:39.202Z,17.00
2019-03-30T15:00:12.063Z,16.90
2019-03-30T15:07:40.134Z,16.90
2019-03-30T15:10:10.738Z,16.80
2019-03-30T15:15:11.389Z,16.90
2019-03-30T15:22:41.506Z,16.80
2019-03-30T15:30:10.012Z,16.90
2019-03-30T15:32:39.376Z,16.80
2019-03-30T15:35:09.654Z,16.80
2019-03-30T15:37:39.154Z,16.90
2019-03-30T15:42:40.373Z,16.70
2019-03-30T15:45:13.671Z,17.40
2019-03-30T15:55:16.515Z,16.80
2019-03-30T16:00:19.136Z,16.70
2019-03-30T16:05:17.735Z,16.70
2019-03-30T16:15:15.148Z,16.60
2019-03-30T16:17:44.491Z,16.50
2019-03-30T16:20:14.712Z,16.50
2019-03-30T16:27:42.879Z,16.30
2019-03-30T16:30:12.746Z,16.30
2019-03-30T16:35:11.644Z,16.10
2019-03-30T16:37:40.999Z,16.10
2019-03-30T16:40:10.951Z,16.10
2019-03-30T16:42:40.336Z,16.00
2019-03-30T16:45:10.010Z,16.10
2019-03-30T16:47:39.407Z,15.80
2019-03-30T16:50:09.762Z,15.10
2019-03-30T16:55:10.780Z,15.60
2019-03-30T17:00:11.415Z,15.30
2019-03-30T17:02:40.819Z,15.30
2019-03-30T17:05:10.292Z,15.30
2019-03-30T17:07:39.688Z,15.20
2019-03-30T17:10:10.168Z,15.00
2019-03-30T17:20:08.662Z,15.10
2019-03-30T17:32:37.869Z,14.80
2019-03-30T17:37:36.923Z,14.60
2019-03-30T17:40:10.913Z,14.50
2019-03-30T17:52:38.064Z,14.20
2019-03-30T17:57:36.561Z,14.10
2019-03-30T18:05:10.998Z,13.40
2019-03-30T18:07:40.434Z,13.80
2019-03-30T18:15:09.645Z,14.30
2019-03-30T18:25:08.143Z,13.50
2019-03-30T18:27:37.488Z,13.50
2019-03-30T18:35:09.421Z,13.40
2019-03-30T18:40:09.217Z,12.80
2019-03-30T18:45:11.505Z,12.90
2019-03-30T18:52:39.798Z,13.30
2019-03-30T18:57:40.131Z,12.60
2019-03-30T19:00:09.642Z,12.90
2019-03-30T19:05:08.163Z,12.80
2019-03-30T19:07:37.532Z,12.90
2019-03-30T19:20:08.878Z,12.50
2019-03-30T19:22:38.246Z,12.70
2019-03-30T19:30:09.724Z,12.60
2019-03-30T19:32:39.090Z,12.30
2019-03-30T19:35:09.111Z,12.10
2019-03-30T19:37:38.479Z,12.80
2019-03-30T19:42:37.254Z,12.10
2019-03-30T19:47:38.580Z,11.90
2019-03-30T19:57:37.373Z,12.30
2019-03-30T20:00:11.149Z,11.70
2019-03-30T20:05:10.396Z,11.60
2019-03-30T20:07:39.791Z,11.90
2019-03-30T20:10:09.755Z,11.90
2019-03-30T20:12:39.423Z,11.80
2019-03-30T20:25:09.518Z,11.50
2019-03-30T20:30:09.832Z,11.60
2019-03-30T20:35:09.514Z,12.10
2019-03-30T20:40:10.332Z,11.10
2019-03-30T20:45:10.195Z,11.10
2019-03-30T20:50:09.351Z,10.90
2019-03-30T20:55:08.246Z,11.50
2019-03-30T21:00:13.512Z,10.70
2019-03-30T21:02:42.927Z,11.10
2019-03-30T21:05:12.700Z,11.10
2019-03-30T21:10:13.074Z,11.20
2019-03-30T21:15:12.165Z,10.90
2019-03-30T21:17:41.663Z,11.20
2019-03-30T21:22:40.583Z,10.70
2019-03-30T21:35:09.900Z,11.10
2019-03-30T21:37:39.294Z,10.50
2019-03-30T21:45:08.746Z,10.80
2019-03-30T21:47:38.227Z,11.40
2019-03-30T21:50:09.103Z,10.80
2019-03-30T21:52:38.538Z,10.60
2019-03-30T21:57:37.391Z,10.80
2019-03-30T22:02:38.794Z,10.80
2019-03-30T22:05:09.268Z,10.80
2019-03-30T22:10:09.842Z,10.60
2019-03-30T22:17:40.534Z,10.80
2019-03-30T22:20:10.414Z,10.60
2019-03-30T22:22:39.875Z,10.80
2019-03-30T22:25:09.502Z,10.30
2019-03-30T22:27:38.922Z,10.70
2019-03-30T22:30:23.638Z,10.20
2019-03-30T22:35:09.609Z,10.30
2019-03-30T22:37:39.105Z,10.60
2019-03-30T22:40:09.403Z,10.30
2019-03-30T22:50:16.025Z,10.20
2019-03-30T22:52:45.886Z,10.30
2019-03-30T23:00:21.988Z,10.40
2019-03-30T23:05:20.997Z,10.10
2019-03-30T23:10:19.972Z,10.30
2019-03-30T23:20:17.407Z,9.70
2019-03-30T23:27:45.816Z,10.00
2019-03-30T23:35:14.547Z,9.60
2019-03-30T23:42:42.548Z,9.60
2019-03-30T23:47:41.762Z,9.70
2019-03-30T23:50:13.013Z,9.80
